Time;durP1;ratioP1;P1;durP2;ratioP2;P2;SDS_P1;SDS_P2;PMS_P1;PMS_P2;Temp;Humidity;BMP_temperature;BMP_pressure;BME280_temperature;BME280_humidity;BME280_pressure;Samples;Min_cycle;Max_cycle;Signal;HPM_P1;HPM_P2
2022/07/20 00:01:36;;;;;;;7.05;2.65;;;;;;;;;;4953270;28;20097;-71
2022/07/20 00:04:03;;;;;;;8.18;2.60;;;;;;;;;;4953222;28;20034;-70
2022/07/20 00:06:29;;;;;;;7.63;2.53;;;;;;;;;;4953393;29;20042;-71
2022/07/20 00:11:39;;;;;;;11.05;2.95;;;;;;;;;;4934049;29;20043;-68
2022/07/20 00:14:06;;;;;;;10.95;2.75;;;;;;;;;;4933755;29;20447;-72
2022/07/20 00:16:35;;;;;;;10.73;3.15;;;;;;;;;;4941421;28;20027;-67
2022/07/20 00:19:01;;;;;;;9.65;3.08;;;;;;;;;;4952590;28;20051;-72
2022/07/20 00:21:27;;;;;;;9.18;2.38;;;;;;;;;;4953441;28;20118;-67
2022/07/20 00:23:54;;;;;;;3.83;2.10;;;;;;;;;;4952375;28;20386;-66
2022/07/20 00:26:20;;;;;;;8.18;2.00;;;;;;;;;;4953588;28;20027;-71
2022/07/20 00:28:46;;;;;;;7.20;2.40;;;;;;;;;;4952220;28;20054;-70
2022/07/20 00:31:12;;;;;;;6.80;2.78;;;;;;;;;;4953501;29;20039;-71
2022/07/20 00:33:38;;;;;;;7.40;2.50;;;;;;;;;;4952307;29;20501;-70
2022/07/20 00:36:04;;;;;;;7.38;2.42;;;;;;;;;;4952097;29;20039;-69
2022/07/20 00:38:30;;;;;;;9.90;2.47;;;;;;;;;;4952311;28;20027;-71
2022/07/20 00:40:56;;;;;;;8.35;2.42;;;;;;;;;;4953291;29;20035;-68
2022/07/20 00:43:22;;;;;;;7.35;2.70;;;;;;;;;;4952533;28;20027;-71
2022/07/20 00:45:47;;;;;;;6.63;2.58;;;;;;;;;;4953163;28;20035;-68
2022/07/20 00:48:13;;;;;;;5.30;2.42;;;;;;;;;;4951364;28;20106;-69
2022/07/20 00:50:40;;;;;;;5.35;2.00;;;;;;;;;;4951505;28;20063;-69
2022/07/20 00:53:07;;;;;;;5.97;2.58;;;;;;;;;;4952559;28;20474;-71
2022/07/20 00:55:33;;;;;;;9.38;2.33;;;;;;;;;;4955002;29;20043;-74
2022/07/20 00:57:59;;;;;;;3.15;2.08;;;;;;;;;;4954012;28;20055;-72
2022/07/20 01:00:25;;;;;;;10.45;2.63;;;;;;;;;;4953762;29;20528;-71
2022/07/20 01:02:51;;;;;;;10.88;2.30;;;;;;;;;;4954515;28;20118;-68
2022/07/20 01:05:17;;;;;;;9.98;2.78;;;;;;;;;;4954637;28;20039;-71
2022/07/20 01:07:49;;;;;;;11.98;3.30;;;;;;;;;;4954250;28;20038;-66
2022/07/20 01:10:16;;;;;;;12.30;2.90;;;;;;;;;;4954877;28;20118;-70
2022/07/20 01:12:48;;;;;;;8.85;2.72;;;;;;;;;;4954102;28;20082;-71
2022/07/20 01:15:15;;;;;;;6.65;2.70;;;;;;;;;;4954882;28;20211;-73
2022/07/20 01:17:42;;;;;;;8.57;2.80;;;;;;;;;;4954077;28;20034;-73
2022/07/20 01:20:13;;;;;;;10.68;3.00;;;;;;;;;;4954527;29;20050;-70
2022/07/20 01:22:39;;;;;;;6.45;2.38;;;;;;;;;;4954323;28;20063;-68
2022/07/20 01:25:05;;;;;;;5.22;2.60;;;;;;;;;;4954464;28;20398;-68
2022/07/20 01:27:32;;;;;;;10.52;2.60;;;;;;;;;;4953915;28;20065;-69
2022/07/20 01:29:58;;;;;;;4.15;2.30;;;;;;;;;;4954548;28;20522;-70
2022/07/20 01:32:24;;;;;;;9.52;2.50;;;;;;;;;;4953951;28;20505;-69
2022/07/20 01:34:50;;;;;;;8.52;2.40;;;;;;;;;;4954625;28;20031;-71
2022/07/20 01:37:16;;;;;;;8.07;2.42;;;;;;;;;;4954073;28;20059;-73
2022/07/20 01:39:42;;;;;;;5.63;2.28;;;;;;;;;;4953767;28;20027;-70
2022/07/20 01:42:07;;;;;;;10.27;2.85;;;;;;;;;;4953687;28;20035;-71
2022/07/20 01:44:33;;;;;;;6.75;2.40;;;;;;;;;;4953859;28;20034;-72
2022/07/20 01:46:59;;;;;;;6.78;2.55;;;;;;;;;;4953667;28;20612;-70
2022/07/20 01:49:27;;;;;;;11.80;2.42;;;;;;;;;;4954025;28;20085;-71
2022/07/20 01:51:54;;;;;;;4.57;2.05;;;;;;;;;;4953896;28;20417;-69
2022/07/20 01:54:20;;;;;;;8.07;2.63;;;;;;;;;;4953847;28;20023;-65
2022/07/20 01:56:45;;;;;;;7.35;2.60;;;;;;;;;;4953910;29;20039;-67
2022/07/20 01:59:11;;;;;;;9.88;2.70;;;;;;;;;;4953563;28;20034;-72
2022/07/20 02:01:38;;;;;;;8.18;2.80;;;;;;;;;;4976666;28;20058;-70
2022/07/20 02:04:04;;;;;;;10.40;2.58;;;;;;;;;;4973203;28;20035;-72
2022/07/20 02:06:55;;;;;;;6.75;2.40;;;;;;;;;;4968465;28;20056;-69
2022/07/20 02:09:21;;;;;;;10.77;2.90;;;;;;;;;;4973501;28;20031;-73
2022/07/20 02:11:47;;;;;;;7.88;2.70;;;;;;;;;;4973700;28;20073;-69
2022/07/20 02:14:13;;;;;;;21.15;4.90;;;;;;;;;;4972839;28;20569;-70
2022/07/20 02:16:38;;;;;;;12.82;2.90;;;;;;;;;;4973218;28;20183;-73
2022/07/20 02:19:04;;;;;;;10.85;2.95;;;;;;;;;;4971871;28;20035;-69
2022/07/20 02:21:30;;;;;;;9.13;2.90;;;;;;;;;;4973208;28;20560;-71
2022/07/20 02:23:57;;;;;;;5.65;3.03;;;;;;;;;;4972486;28;20046;-67
2022/07/20 02:26:23;;;;;;;6.03;2.50;;;;;;;;;;4973502;28;20030;-70
2022/07/20 02:28:49;;;;;;;10.02;2.80;;;;;;;;;;4972457;28;20051;-70
2022/07/20 02:31:18;;;;;;;15.07;3.17;;;;;;;;;;4972904;28;20039;-72
2022/07/20 02:33:44;;;;;;;13.73;4.22;;;;;;;;;;4971921;28;20030;-73
2022/07/20 02:36:10;;;;;;;12.60;3.85;;;;;;;;;;4972791;28;20031;-71
2022/07/20 02:38:37;;;;;;;15.13;4.78;;;;;;;;;;4970052;28;20037;-72
2022/07/20 02:41:03;;;;;;;12.48;4.28;;;;;;;;;;4973113;28;20690;-72
2022/07/20 02:43:30;;;;;;;13.68;4.25;;;;;;;;;;4972086;28;20043;-72
2022/07/20 02:45:55;;;;;;;14.63;4.20;;;;;;;;;;4972729;28;20034;-73
2022/07/20 02:48:21;;;;;;;11.50;3.05;;;;;;;;;;4972108;28;20086;-67
2022/07/20 02:50:47;;;;;;;7.80;3.00;;;;;;;;;;4972478;28;20027;-73
2022/07/20 02:53:13;;;;;;;8.98;3.10;;;;;;;;;;4971811;28;20371;-70
2022/07/20 02:55:41;;;;;;;7.90;2.90;;;;;;;;;;4972769;28;20454;-71
2022/07/20 02:58:08;;;;;;;6.53;3.05;;;;;;;;;;4971911;28;20498;-74
2022/07/20 03:00:35;;;;;;;9.63;2.70;;;;;;;;;;4973129;28;20385;-69
2022/07/20 03:03:01;;;;;;;7.55;2.85;;;;;;;;;;4972178;28;20046;-72
2022/07/20 03:05:27;;;;;;;7.03;2.90;;;;;;;;;;4972174;28;20445;-74
2022/07/20 03:07:53;;;;;;;8.48;3.03;;;;;;;;;;4971857;28;20545;-71
2022/07/20 03:10:19;;;;;;;8.90;2.92;;;;;;;;;;4972425;28;20027;-71
2022/07/20 03:12:45;;;;;;;9.10;3.15;;;;;;;;;;4971302;28;20389;-72
2022/07/20 03:15:12;;;;;;;8.60;2.95;;;;;;;;;;4971417;28;20027;-70
2022/07/20 03:17:57;;;;;;;9.02;2.50;;;;;;;;;;4971091;28;20047;-72
2022/07/20 03:20:26;;;;;;;14.05;3.70;;;;;;;;;;4972460;28;20042;-74
2022/07/20 03:22:53;;;;;;;19.88;5.38;;;;;;;;;;4971518;28;20110;-67
2022/07/20 03:25:19;;;;;;;10.55;2.75;;;;;;;;;;4971074;28;20038;-69
2022/07/20 03:27:45;;;;;;;16.55;4.25;;;;;;;;;;4971294;28;20104;-68
2022/07/20 03:30:12;;;;;;;9.27;2.67;;;;;;;;;;4972317;28;20026;-68
2022/07/20 03:32:38;;;;;;;6.85;3.38;;;;;;;;;;4971580;28;20039;-70
2022/07/20 03:35:05;;;;;;;13.68;3.58;;;;;;;;;;4971611;28;20039;-71
2022/07/20 03:37:31;;;;;;;22.02;4.95;;;;;;;;;;4971597;28;20440;-73
2022/07/20 03:39:57;;;;;;;17.40;4.32;;;;;;;;;;4971622;28;20034;-72
2022/07/20 03:42:22;;;;;;;10.13;3.20;;;;;;;;;;4970263;28;20172;-70
2022/07/20 03:44:48;;;;;;;12.00;3.50;;;;;;;;;;4971395;28;20039;-69
2022/07/20 03:47:14;;;;;;;11.75;3.35;;;;;;;;;;4971391;28;20114;-68
2022/07/20 03:49:40;;;;;;;11.57;3.60;;;;;;;;;;4971442;28;20041;-67
2022/07/20 03:52:06;;;;;;;9.18;3.00;;;;;;;;;;4971197;28;20029;-75
2022/07/20 03:54:32;;;;;;;17.50;3.67;;;;;;;;;;4970727;28;20398;-71
2022/07/20 03:56:58;;;;;;;13.88;3.58;;;;;;;;;;4971092;28;20104;-70
2022/07/20 03:59:23;;;;;;;11.45;3.75;;;;;;;;;;4971133;28;20063;-71
2022/07/20 04:01:49;;;;;;;7.78;3.45;;;;;;;;;;4971320;28;20034;-71
2022/07/20 04:04:15;;;;;;;14.02;3.70;;;;;;;;;;4970691;28;20548;-72
2022/07/20 04:06:41;;;;;;;7.35;3.40;;;;;;;;;;4971283;28;20581;-72
2022/07/20 04:09:07;;;;;;;16.20;3.80;;;;;;;;;;4970831;28;20496;-69
2022/07/20 04:11:32;;;;;;;11.10;3.60;;;;;;;;;;4971276;28;20038;-74
2022/07/20 04:13:58;;;;;;;12.23;3.42;;;;;;;;;;4970812;28;20042;-71
2022/07/20 04:16:24;;;;;;;9.38;3.50;;;;;;;;;;4969033;28;20473;-71
2022/07/20 04:18:50;;;;;;;10.68;3.65;;;;;;;;;;4970482;28;20062;-73
2022/07/20 04:21:16;;;;;;;13.57;3.88;;;;;;;;;;4983571;28;20432;-74
2022/07/20 04:23:42;;;;;;;12.68;3.85;;;;;;;;;;4988667;28;20471;-69
2022/07/20 04:26:08;;;;;;;19.83;4.72;;;;;;;;;;4989314;28;20420;-73
2022/07/20 04:28:34;;;;;;;11.50;3.30;;;;;;;;;;4993137;28;20386;-72
2022/07/20 04:31:01;;;;;;;18.88;3.53;;;;;;;;;;4992665;28;20050;-70
2022/07/20 04:33:27;;;;;;;13.63;3.45;;;;;;;;;;4992068;28;20104;-68
2022/07/20 04:35:54;;;;;;;16.23;3.58;;;;;;;;;;4993458;28;20042;-72
2022/07/20 04:38:20;;;;;;;13.25;3.33;;;;;;;;;;4992195;28;20046;-72
2022/07/20 04:40:47;;;;;;;16.90;4.00;;;;;;;;;;4989442;28;20085;-71
2022/07/20 04:43:13;;;;;;;14.20;3.67;;;;;;;;;;4974051;28;20445;-67
2022/07/20 04:45:39;;;;;;;15.23;4.47;;;;;;;;;;4974922;28;20027;-70
2022/07/20 04:48:05;;;;;;;10.30;2.92;;;;;;;;;;4974117;28;20405;-70
2022/07/20 04:50:31;;;;;;;13.18;3.38;;;;;;;;;;4969043;28;20026;-67
2022/07/20 04:52:57;;;;;;;9.85;3.55;;;;;;;;;;4975328;28;20363;-70
2022/07/20 04:55:23;;;;;;;11.57;3.20;;;;;;;;;;4975368;28;20054;-74
2022/07/20 04:57:48;;;;;;;13.73;4.07;;;;;;;;;;4975732;28;20063;-67
2022/07/20 05:00:15;;;;;;;8.07;2.88;;;;;;;;;;4975271;28;20455;-72
2022/07/20 05:02:40;;;;;;;6.40;3.25;;;;;;;;;;4975548;28;20042;-66
2022/07/20 05:05:07;;;;;;;5.60;2.72;;;;;;;;;;4975454;28;20496;-73
2022/07/20 05:07:34;;;;;;;10.77;2.40;;;;;;;;;;4975465;28;20035;-72
2022/07/20 05:09:59;;;;;;;5.82;2.17;;;;;;;;;;4975495;28;20027;-71
2022/07/20 05:12:25;;;;;;;4.88;2.45;;;;;;;;;;4976372;28;20465;-69
2022/07/20 05:14:51;;;;;;;10.82;2.30;;;;;;;;;;4976149;28;20023;-67
2022/07/20 05:17:17;;;;;;;7.13;2.17;;;;;;;;;;4975316;28;20046;-67
2022/07/20 05:19:43;;;;;;;3.97;1.90;;;;;;;;;;4975330;28;20118;-70
2022/07/20 05:22:08;;;;;;;5.78;2.22;;;;;;;;;;4973309;28;20090;-68
2022/07/20 05:24:34;;;;;;;4.90;2.25;;;;;;;;;;4975152;28;20023;-69
2022/07/20 05:27:00;;;;;;;6.00;2.50;;;;;;;;;;4975380;28;20035;-67
2022/07/20 05:29:26;;;;;;;7.72;2.58;;;;;;;;;;4975212;28;20042;-68
2022/07/20 05:31:52;;;;;;;3.72;2.08;;;;;;;;;;4975301;28;20482;-67
2022/07/20 05:34:17;;;;;;;4.45;2.15;;;;;;;;;;4975112;28;20438;-66
2022/07/20 05:36:44;;;;;;;9.88;2.63;;;;;;;;;;4975311;28;20114;-67
2022/07/20 05:39:09;;;;;;;6.43;2.50;;;;;;;;;;4974685;28;20097;-67
2022/07/20 05:41:36;;;;;;;6.43;2.38;;;;;;;;;;4974991;28;20065;-67
2022/07/20 05:44:02;;;;;;;9.00;2.95;;;;;;;;;;4975350;28;20101;-67
2022/07/20 05:46:28;;;;;;;8.73;2.83;;;;;;;;;;4975850;28;20039;-66
2022/07/20 05:48:54;;;;;;;13.98;3.00;;;;;;;;;;4976115;28;20031;-68
2022/07/20 05:51:20;;;;;;;5.60;2.47;;;;;;;;;;4976322;28;20035;-67
2022/07/20 05:53:45;;;;;;;5.75;2.50;;;;;;;;;;4976081;28;20023;-71
2022/07/20 05:56:11;;;;;;;7.13;2.78;;;;;;;;;;4976293;28;20079;-69
2022/07/20 05:58:38;;;;;;;5.00;2.50;;;;;;;;;;4970015;28;20034;-72
2022/07/20 06:01:04;;;;;;;9.05;2.55;;;;;;;;;;4960086;28;20478;-69
2022/07/20 06:03:29;;;;;;;8.57;2.22;;;;;;;;;;4956485;28;20027;-70
2022/07/20 06:05:55;;;;;;;10.93;2.53;;;;;;;;;;4956263;29;20038;-73
2022/07/20 06:08:21;;;;;;;7.53;2.53;;;;;;;;;;4956530;29;20378;-72
2022/07/20 06:10:47;;;;;;;7.82;2.60;;;;;;;;;;4956376;29;20467;-70
2022/07/20 06:13:13;;;;;;;5.43;2.10;;;;;;;;;;4956147;29;20042;-71
2022/07/20 06:15:39;;;;;;;5.38;2.38;;;;;;;;;;4958824;28;20063;-72
2022/07/20 06:18:06;;;;;;;7.35;2.30;;;;;;;;;;4964521;28;20027;-73
2022/07/20 06:20:32;;;;;;;10.55;2.42;;;;;;;;;;4956361;28;20470;-72
2022/07/20 06:22:58;;;;;;;5.38;2.60;;;;;;;;;;4955910;28;20054;-72
2022/07/20 06:25:25;;;;;;;5.85;2.33;;;;;;;;;;4956122;28;20043;-72
2022/07/20 06:27:50;;;;;;;6.57;2.25;;;;;;;;;;4958817;28;20042;-71
2022/07/20 06:30:17;;;;;;;7.97;2.25;;;;;;;;;;4972420;28;20465;-73
2022/07/20 06:32:43;;;;;;;5.75;2.20;;;;;;;;;;4972348;28;20062;-72
2022/07/20 06:35:09;;;;;;;5.82;1.90;;;;;;;;;;4974028;28;20389;-73
2022/07/20 06:37:36;;;;;;;10.93;2.03;;;;;;;;;;4974183;28;20027;-73
2022/07/20 06:40:03;;;;;;;5.43;1.70;;;;;;;;;;4973686;28;20470;-70
2022/07/20 06:42:29;;;;;;;8.30;2.47;;;;;;;;;;4972140;28;20022;-71
2022/07/20 06:44:55;;;;;;;4.78;1.60;;;;;;;;;;4973764;28;20038;-69
2022/07/20 06:47:22;;;;;;;8.27;1.60;;;;;;;;;;4973721;28;20034;-71
2022/07/20 06:49:48;;;;;;;4.45;1.75;;;;;;;;;;4990205;28;20039;-70
2022/07/20 06:52:14;;;;;;;5.43;1.80;;;;;;;;;;4972874;28;20033;-73
2022/07/20 06:54:40;;;;;;;3.25;1.67;;;;;;;;;;4973774;28;20039;-71
2022/07/20 06:57:05;;;;;;;4.80;1.98;;;;;;;;;;4973938;28;20030;-70
2022/07/20 06:59:31;;;;;;;3.42;1.42;;;;;;;;;;4973353;28;20070;-71
2022/07/20 07:01:57;;;;;;;3.95;1.38;;;;;;;;;;4987936;28;20043;-71
2022/07/20 07:04:23;;;;;;;3.30;1.60;;;;;;;;;;4993160;28;20057;-72
2022/07/20 07:06:49;;;;;;;2.63;1.13;;;;;;;;;;4992402;28;20027;-71
2022/07/20 07:09:15;;;;;;;4.60;1.55;;;;;;;;;;4978500;28;20050;-71
2022/07/20 07:11:41;;;;;;;4.68;1.30;;;;;;;;;;4974493;28;20038;-71
2022/07/20 07:14:07;;;;;;;7.13;1.70;;;;;;;;;;4972324;28;20039;-72
2022/07/20 07:16:32;;;;;;;6.18;2.03;;;;;;;;;;4973024;28;20457;-70
2022/07/20 07:18:58;;;;;;;7.32;1.90;;;;;;;;;;4973147;28;20478;-73
2022/07/20 07:21:24;;;;;;;4.63;1.40;;;;;;;;;;4967792;28;20027;-71
2022/07/20 07:23:50;;;;;;;5.07;2.00;;;;;;;;;;4972255;28;20460;-71
2022/07/20 07:26:17;;;;;;;5.78;1.90;;;;;;;;;;4976463;28;20110;-71
2022/07/20 07:28:44;;;;;;;4.95;1.77;;;;;;;;;;4991868;28;20047;-71
2022/07/20 07:31:17;;;;;;;3.13;1.30;;;;;;;;;;4992208;28;20038;-73
2022/07/20 07:34:02;;;;;;;2.58;1.23;;;;;;;;;;4989835;28;20082;-71
2022/07/20 07:36:28;;;;;;;6.57;1.35;;;;;;;;;;4985063;28;20059;-71
2022/07/20 07:38:53;;;;;;;2.03;1.27;;;;;;;;;;4969864;28;20047;-73
2022/07/20 07:41:19;;;;;;;12.02;2.17;;;;;;;;;;4970883;28;20429;-74
2022/07/20 07:43:45;;;;;;;2.15;1.48;;;;;;;;;;4970210;28;20081;-71
2022/07/20 07:46:11;;;;;;;7.22;1.92;;;;;;;;;;4970738;28;20035;-71
2022/07/20 07:48:37;;;;;;;6.50;1.83;;;;;;;;;;4970575;28;20077;-72
2022/07/20 07:51:03;;;;;;;6.38;1.88;;;;;;;;;;4970101;28;20022;-69
2022/07/20 07:53:29;;;;;;;2.90;1.50;;;;;;;;;;4970763;28;20101;-69
2022/07/20 07:55:55;;;;;;;6.47;2.00;;;;;;;;;;4954009;28;20037;-70
2022/07/20 07:58:21;;;;;;;6.75;1.58;;;;;;;;;;4970214;28;20058;-70
2022/07/20 08:00:47;;;;;;;4.38;1.67;;;;;;;;;;4971156;28;20046;-69
2022/07/20 08:03:13;;;;;;;6.72;1.70;;;;;;;;;;4983596;28;20050;-70
2022/07/20 08:05:39;;;;;;;4.53;1.70;;;;;;;;;;4990097;28;20472;-69
2022/07/20 08:08:10;;;;;;;3.92;1.45;;;;;;;;;;4990502;28;20142;-68
2022/07/20 08:10:40;;;;;;;4.05;1.60;;;;;;;;;;4990848;28;20050;-67
2022/07/20 08:13:06;;;;;;;2.78;1.27;;;;;;;;;;4992873;28;20122;-69
2022/07/20 08:15:32;;;;;;;2.85;1.40;;;;;;;;;;4992583;28;20076;-67
2022/07/20 08:17:58;;;;;;;4.30;1.33;;;;;;;;;;4978868;28;20083;-68
2022/07/20 08:20:24;;;;;;;5.95;1.45;;;;;;;;;;4973318;28;20385;-68
2022/07/20 08:22:50;;;;;;;3.47;1.38;;;;;;;;;;4973056;28;20426;-66
2022/07/20 08:25:16;;;;;;;3.50;1.40;;;;;;;;;;4972280;28;20083;-68
2022/07/20 08:27:42;;;;;;;2.95;1.50;;;;;;;;;;4972913;28;20445;-67
2022/07/20 08:30:09;;;;;;;4.57;1.45;;;;;;;;;;4972848;28;20042;-67
2022/07/20 08:32:35;;;;;;;2.53;1.60;;;;;;;;;;4973158;28;20041;-67
2022/07/20 08:35:01;;;;;;;7.50;1.60;;;;;;;;;;4973022;28;20027;-67
2022/07/20 08:37:27;;;;;;;5.10;1.73;;;;;;;;;;4971790;28;20085;-68
2022/07/20 08:39:52;;;;;;;5.30;1.50;;;;;;;;;;4972975;28;20030;-67
2022/07/20 08:42:18;;;;;;;5.85;1.70;;;;;;;;;;4972492;28;20045;-68
2022/07/20 08:44:45;;;;;;;4.47;1.40;;;;;;;;;;4972973;28;20033;-69
2022/07/20 08:47:12;;;;;;;7.97;1.60;;;;;;;;;;4972655;28;20030;-68
2022/07/20 08:49:50;;;;;;;3.85;1.50;;;;;;;;;;4964511;28;20034;-69
2022/07/20 08:52:17;;;;;;;6.47;3.08;;;;;;;;;;4970372;28;20030;-68
2022/07/20 08:54:44;;;;;;;4.90;1.45;;;;;;;;;;4966906;28;20037;-69
2022/07/20 08:57:16;;;;;;;5.70;1.80;;;;;;;;;;4972064;28;20126;-69
2022/07/20 08:59:45;;;;;;;5.32;1.60;;;;;;;;;;4973241;28;20172;-66
2022/07/20 09:02:11;;;;;;;3.78;1.40;;;;;;;;;;4974314;28;20026;-68
2022/07/20 09:04:58;;;;;;;5.25;1.35;;;;;;;;;;4966652;28;20035;-71
2022/07/20 09:07:40;;;;;;;2.72;1.10;;;;;;;;;;4970975;28;20050;-68
2022/07/20 09:10:14;;;;;;;3.78;1.40;;;;;;;;;;4960102;28;20086;-68
2022/07/20 09:12:50;;;;;;;4.80;1.73;;;;;;;;;;4971765;28;20049;-70
2022/07/20 09:15:40;;;;;;;2.40;1.35;;;;;;;;;;4975493;28;20027;-71
2022/07/20 09:18:13;;;;;;;6.53;1.65;;;;;;;;;;4970447;28;20078;-71
2022/07/20 09:20:49;;;;;;;3.38;1.27;;;;;;;;;;4978590;28;20037;-71
2022/07/20 09:23:31;;;;;;;4.03;1.50;;;;;;;;;;4994609;28;20046;-72
2022/07/20 09:26:05;;;;;;;5.03;1.30;;;;;;;;;;4993974;28;20042;-74
2022/07/20 09:28:36;;;;;;;3.60;1.20;;;;;;;;;;4994349;28;20042;-68
2022/07/20 09:31:09;;;;;;;5.93;1.50;;;;;;;;;;4995009;28;20038;-68
2022/07/20 09:33:34;;;;;;;5.45;1.38;;;;;;;;;;4985471;28;20661;-69
2022/07/20 09:48:43;;;;;;;5.28;1.67;;;;;;;;;;4948713;29;20556;-71
2022/07/20 09:51:18;;;;;;;4.43;1.58;;;;;;;;;;4947438;29;20035;-70
2022/07/20 09:53:44;;;;;;;3.17;1.33;;;;;;;;;;4954507;29;20031;-69
2022/07/20 09:56:10;;;;;;;3.25;1.52;;;;;;;;;;4953540;29;20027;-70
2022/07/20 09:58:37;;;;;;;3.38;1.60;;;;;;;;;;4955272;29;20041;-70
2022/07/20 10:01:03;;;;;;;5.50;1.98;;;;;;;;;;4945417;29;20028;-72
2022/07/20 10:03:29;;;;;;;3.95;1.40;;;;;;;;;;4938490;28;20103;-68
2022/07/20 10:06:02;;;;;;;5.28;1.70;;;;;;;;;;4935117;29;20406;-73
2022/07/20 10:14:49;;;;;;;3.22;0.98;;;;;;;;;;4861572;29;20064;-74
2022/07/20 10:17:15;;;;;;;2.58;1.13;;;;;;;;;;4860892;29;20057;-73
2022/07/20 10:19:45;;;;;;;3.97;1.20;;;;;;;;;;4861780;29;20041;-71
2022/07/20 10:22:12;;;;;;;2.33;1.02;;;;;;;;;;4879436;29;20089;-70
2022/07/20 10:24:42;;;;;;;4.40;1.10;;;;;;;;;;4878383;29;20104;-72
2022/07/20 10:27:08;;;;;;;2.25;0.88;;;;;;;;;;4879504;29;20448;-70
2022/07/20 10:29:40;;;;;;;1.35;1.00;;;;;;;;;;4879409;29;20085;-74
2022/07/20 10:32:09;;;;;;;3.25;1.20;;;;;;;;;;4878811;29;20075;-71
2022/07/20 10:34:41;;;;;;;3.78;1.48;;;;;;;;;;4879856;29;20029;-74
2022/07/20 10:37:27;;;;;;;1.75;0.90;;;;;;;;;;4878438;29;20552;-71
2022/07/20 10:40:07;;;;;;;7.70;1.45;;;;;;;;;;4877882;29;20535;-75
2022/07/20 10:42:37;;;;;;;3.85;1.15;;;;;;;;;;4878240;29;20044;-68
2022/07/20 10:45:25;;;;;;;3.00;1.00;;;;;;;;;;4880078;29;20449;-71
2022/07/20 10:48:11;;;;;;;4.88;1.02;;;;;;;;;;4879407;29;20149;-72
2022/07/20 10:50:52;;;;;;;3.80;1.10;;;;;;;;;;4879628;29;20109;-73
2022/07/20 10:53:18;;;;;;;2.53;1.10;;;;;;;;;;4879313;29;20475;-73
2022/07/20 10:55:50;;;;;;;8.18;5.03;;;;;;;;;;4879331;29;20029;-71
2022/07/20 10:58:27;;;;;;;4.53;1.40;;;;;;;;;;4879316;29;20120;-73
2022/07/20 11:01:13;;;;;;;3.05;1.45;;;;;;;;;;4878823;29;20055;-73
2022/07/20 11:03:41;;;;;;;2.80;1.67;;;;;;;;;;4879314;29;20037;-69
2022/07/20 11:06:10;;;;;;;1.45;0.85;;;;;;;;;;4879345;29;20029;-72
2022/07/20 11:08:39;;;;;;;7.43;2.28;;;;;;;;;;4879011;29;20047;-73
2022/07/20 11:11:07;;;;;;;2.95;1.20;;;;;;;;;;4879365;29;20104;-70
2022/07/20 11:13:34;;;;;;;2.70;1.17;;;;;;;;;;4898667;29;20443;-74
2022/07/20 11:16:02;;;;;;;1.60;1.00;;;;;;;;;;4916345;29;20126;-70
2022/07/20 11:18:30;;;;;;;3.67;1.33;;;;;;;;;;4916136;29;20107;-74
2022/07/20 11:21:04;;;;;;;6.03;1.45;;;;;;;;;;4916543;29;20020;-68
2022/07/20 11:23:46;;;;;;;2.17;1.10;;;;;;;;;;4916416;29;20044;-73
2022/07/20 11:26:15;;;;;;;4.73;1.27;;;;;;;;;;4916751;29;20059;-73
2022/07/20 11:28:50;;;;;;;2.97;1.25;;;;;;;;;;4916464;29;20107;-74
2022/07/20 11:31:18;;;;;;;3.25;1.17;;;;;;;;;;4916090;29;20040;-69
2022/07/20 11:33:47;;;;;;;4.78;1.02;;;;;;;;;;4916445;29;20101;-69
2022/07/20 11:36:16;;;;;;;1.67;1.02;;;;;;;;;;4916011;29;20083;-72
2022/07/20 11:38:50;;;;;;;4.18;1.40;;;;;;;;;;4915858;29;20482;-74
2022/07/20 11:41:20;;;;;;;2.20;0.93;;;;;;;;;;4916202;29;20111;-74
2022/07/20 11:43:46;;;;;;;2.00;1.00;;;;;;;;;;4916390;29;20111;-75
2022/07/20 11:46:14;;;;;;;1.83;1.08;;;;;;;;;;4916036;29;20467;-74
2022/07/20 11:48:43;;;;;;;4.20;1.20;;;;;;;;;;4916261;29;20205;-71
2022/07/20 11:51:09;;;;;;;2.78;1.10;;;;;;;;;;4916013;29;20028;-74
2022/07/20 11:53:38;;;;;;;3.35;1.13;;;;;;;;;;4915793;29;20132;-69
2022/07/20 11:56:18;;;;;;;4.65;1.17;;;;;;;;;;4916313;29;20048;-68
2022/07/20 11:58:47;;;;;;;4.43;1.50;;;;;;;;;;4916043;29;20109;-74
2022/07/20 12:01:18;;;;;;;5.68;1.02;;;;;;;;;;4915355;29;20039;-72
2022/07/20 12:03:51;;;;;;;3.35;1.38;;;;;;;;;;4915876;29;20359;-72
2022/07/20 12:06:18;;;;;;;2.75;1.02;;;;;;;;;;4916055;29;20483;-70
2022/07/20 12:08:44;;;;;;;6.38;2.10;;;;;;;;;;4915234;29;20091;-72
2022/07/20 12:11:12;;;;;;;4.22;1.10;;;;;;;;;;4915762;29;20135;-70
2022/07/20 12:13:46;;;;;;;3.10;1.40;;;;;;;;;;4912706;29;20044;-74
2022/07/20 12:16:12;;;;;;;3.63;1.17;;;;;;;;;;4915027;29;20521;-73
2022/07/20 12:18:52;;;;;;;3.40;1.30;;;;;;;;;;4915267;29;20020;-73
2022/07/20 12:21:24;;;;;;;4.45;1.20;;;;;;;;;;4915396;29;20558;-75
2022/07/20 12:23:51;;;;;;;1.67;1.10;;;;;;;;;;4914723;29;20071;-76
2022/07/20 12:26:29;;;;;;;3.90;1.20;;;;;;;;;;4915446;29;20036;-75
2022/07/20 12:28:58;;;;;;;3.88;1.30;;;;;;;;;;4915276;29;20059;-75
2022/07/20 12:31:26;;;;;;;6.75;1.20;;;;;;;;;;4915002;29;20603;-75
2022/07/20 12:34:10;;;;;;;4.95;1.50;;;;;;;;;;4915271;29;20505;-69
2022/07/20 12:36:40;;;;;;;3.72;1.10;;;;;;;;;;4914387;29;20167;-71
2022/07/20 12:39:12;;;;;;;2.22;1.30;;;;;;;;;;4915051;29;20503;-77
2022/07/20 12:41:39;;;;;;;3.42;1.10;;;;;;;;;;4915186;29;20035;-72
2022/07/20 12:44:26;;;;;;;3.40;1.05;;;;;;;;;;4914853;29;20036;-73
2022/07/20 12:46:56;;;;;;;3.28;1.02;;;;;;;;;;4915545;29;20123;-74
2022/07/20 12:49:25;;;;;;;2.65;1.15;;;;;;;;;;4917253;29;20047;-76
2022/07/20 12:51:52;;;;;;;4.57;1.80;;;;;;;;;;4918831;29;20028;-74
2022/07/20 12:54:18;;;;;;;3.95;1.25;;;;;;;;;;4918763;29;20040;-74
2022/07/20 12:56:45;;;;;;;4.50;1.30;;;;;;;;;;4918915;29;20050;-74
2022/07/20 12:59:12;;;;;;;4.45;1.30;;;;;;;;;;4918427;29;20043;-73
2022/07/20 13:01:38;;;;;;;2.95;1.80;;;;;;;;;;4918748;29;20383;-73
2022/07/20 13:04:05;;;;;;;4.25;1.50;;;;;;;;;;4919023;29;20028;-72
2022/07/20 13:06:35;;;;;;;1.90;1.10;;;;;;;;;;4918772;29;20463;-69
2022/07/20 13:09:04;;;;;;;3.42;1.20;;;;;;;;;;4918824;29;20486;-74
2022/07/20 13:11:30;;;;;;;2.75;1.00;;;;;;;;;;4918758;29;20032;-75
2022/07/20 13:13:56;;;;;;;4.60;1.30;;;;;;;;;;4918286;29;20103;-71
2022/07/20 13:16:22;;;;;;;3.70;1.27;;;;;;;;;;4917866;29;20032;-77
2022/07/20 13:18:48;;;;;;;3.40;1.20;;;;;;;;;;4917936;29;20036;-73
2022/07/20 13:21:14;;;;;;;3.88;1.00;;;;;;;;;;4917635;29;20087;-74
2022/07/20 13:23:40;;;;;;;4.30;1.20;;;;;;;;;;4917685;29;20127;-75
2022/07/20 13:26:06;;;;;;;3.22;1.13;;;;;;;;;;4918454;29;20071;-75
2022/07/20 13:28:34;;;;;;;2.22;0.90;;;;;;;;;;4916339;29;20447;-74
2022/07/20 13:31:00;;;;;;;1.88;1.02;;;;;;;;;;4917929;29;20028;-75
2022/07/20 13:33:26;;;;;;;1.48;0.90;;;;;;;;;;4917822;29;20046;-76
2022/07/20 13:35:52;;;;;;;2.38;1.02;;;;;;;;;;4917745;29;20031;-72
2022/07/20 13:38:18;;;;;;;1.88;0.90;;;;;;;;;;4918108;29;20095;-74
2022/07/20 13:40:44;;;;;;;1.30;0.80;;;;;;;;;;4917387;29;20028;-74
2022/07/20 13:43:10;;;;;;;4.18;1.20;;;;;;;;;;4917126;29;20037;-72
2022/07/20 13:45:35;;;;;;;3.42;1.08;;;;;;;;;;4917831;29;20025;-74
2022/07/20 13:48:03;;;;;;;6.43;1.38;;;;;;;;;;4917521;29;20051;-71
2022/07/20 13:50:29;;;;;;;5.45;1.20;;;;;;;;;;4917345;29;20387;-70
2022/07/20 13:52:55;;;;;;;2.97;1.00;;;;;;;;;;4917024;29;20032;-70
2022/07/20 13:55:21;;;;;;;1.92;1.00;;;;;;;;;;4917204;29;20034;-68
2022/07/20 13:57:46;;;;;;;2.40;1.15;;;;;;;;;;4916149;29;20036;-69
2022/07/20 14:00:13;;;;;;;5.15;1.38;;;;;;;;;;4916877;29;20032;-71
2022/07/20 14:02:40;;;;;;;3.03;1.17;;;;;;;;;;4918107;29;20546;-68
2022/07/20 14:05:06;;;;;;;2.67;0.95;;;;;;;;;;4918168;29;20024;-67
2022/07/20 14:07:33;;;;;;;1.80;1.02;;;;;;;;;;4900728;29;20028;-69
2022/07/20 14:09:59;;;;;;;4.95;1.60;;;;;;;;;;4918140;29;20020;-69
2022/07/20 14:12:26;;;;;;;3.00;1.20;;;;;;;;;;4918034;29;20040;-66
2022/07/20 14:14:51;;;;;;;4.15;1.17;;;;;;;;;;4917619;29;20036;-67
2022/07/20 14:17:17;;;;;;;4.40;1.02;;;;;;;;;;4917878;29;20446;-66
2022/07/20 14:19:43;;;;;;;2.90;1.30;;;;;;;;;;4918023;29;20024;-68
2022/07/20 14:22:09;;;;;;;2.90;1.20;;;;;;;;;;4917729;29;20043;-68
2022/07/20 14:24:36;;;;;;;2.85;1.10;;;;;;;;;;4917912;29;20051;-68
2022/07/20 14:27:05;;;;;;;2.05;1.20;;;;;;;;;;4917794;29;20036;-67
2022/07/20 14:29:31;;;;;;;3.50;1.38;;;;;;;;;;4917093;29;20032;-69
2022/07/20 14:31:57;;;;;;;3.65;1.10;;;;;;;;;;4918003;29;20040;-67
2022/07/20 14:34:24;;;;;;;1.33;1.00;;;;;;;;;;4917764;29;20035;-71
2022/07/20 14:36:50;;;;;;;3.13;1.20;;;;;;;;;;4917378;29;20120;-69
2022/07/20 14:39:17;;;;;;;4.40;1.20;;;;;;;;;;4917683;29;20027;-69
2022/07/20 14:41:44;;;;;;;2.63;1.08;;;;;;;;;;4917422;29;20083;-69
2022/07/20 14:44:10;;;;;;;3.78;1.15;;;;;;;;;;4916920;29;20035;-70
2022/07/20 14:46:37;;;;;;;4.93;1.00;;;;;;;;;;4900457;29;20032;-69
2022/07/20 14:49:04;;;;;;;3.30;1.40;;;;;;;;;;4917058;29;20032;-69
2022/07/20 14:51:30;;;;;;;4.53;1.10;;;;;;;;;;4916550;29;20447;-68
2022/07/20 14:53:56;;;;;;;5.38;1.17;;;;;;;;;;4916953;29;20032;-69
2022/07/20 14:56:22;;;;;;;4.45;1.20;;;;;;;;;;4914724;29;20040;-71
2022/07/20 14:58:48;;;;;;;5.72;1.48;;;;;;;;;;4916184;29;20538;-67
2022/07/20 15:01:14;;;;;;;4.07;1.10;;;;;;;;;;4916963;29;20128;-70
2022/07/20 15:03:39;;;;;;;3.22;1.10;;;;;;;;;;4916100;29;20424;-67
2022/07/20 15:06:06;;;;;;;2.58;1.50;;;;;;;;;;4916508;29;20055;-69